Terminal Aerodrome Forecast
Issued by NWS

Home | Current Version | Previous Version | Text Only | Print | Product List | Glossary On
Versions: 1 2 3 4 5 6 7 8 9 10 11 12 13 14 15 16 17 18 19 20 21 22 23 24 25 26 27 28 29 30 31 32 33 34 35 36 37 38
000
FTUS45 KGJT 181728
TAFCNY
TAF
KCNY 181728Z 1818/1918 13005KT P6SM VCSH SCT200
     FM181900 01008KT P6SM SCT070 SCT120
     FM190000 06006KT P6SM VCSH BKN070
     FM190300 VRB05KT P6SM BKN100
     FM190600 35004KT P6SM SCT100
     FM191200 04010KT P6SM OVC100=

USA.gov is the U.S. government's official web portal to all federal, state and local government web resources and services.